Time;durP1;ratioP1;P1;durP2;ratioP2;P2;SDS_P1;SDS_P2;PMS_P1;PMS_P2;Temp;Humidity;BMP_temperature;BMP_pressure;BME280_temperature;BME280_humidity;BME280_pressure;Samples;Min_cycle;Max_cycle;Signal;HPM_P1;HPM_P2
2023/01/24 00:03:30;;;;;;;11.43;7.55;;;;;;;;;;8285700;28;20080;-66
2023/01/24 00:07:30;;;;;;;12.05;7.60;;;;;;;;;;8289642;28;20022;-66
2023/01/24 00:11:30;;;;;;;16.33;8.45;;;;;;;;;;8285296;28;20048;-66
2023/01/24 00:15:31;;;;;;;11.95;7.78;;;;;;;;;;8286690;28;20502;-66
2023/01/24 00:19:31;;;;;;;12.27;7.68;;;;;;;;;;8285082;28;20460;-66
2023/01/24 00:23:31;;;;;;;12.98;7.38;;;;;;;;;;8285345;28;20048;-65
2023/01/24 00:27:34;;;;;;;9.80;7.10;;;;;;;;;;8287150;28;20275;-65
2023/01/24 00:31:34;;;;;;;14.32;8.40;;;;;;;;;;8297489;28;21290;-66
2023/01/24 00:35:34;;;;;;;11.95;8.07;;;;;;;;;;8296633;28;20029;-66
2023/01/24 00:39:34;;;;;;;11.13;7.43;;;;;;;;;;8298109;28;20101;-66
2023/01/24 00:43:35;;;;;;;13.55;8.50;;;;;;;;;;8296979;28;20029;-66
2023/01/24 00:47:35;;;;;;;12.27;8.07;;;;;;;;;;8293997;28;20088;-66
2023/01/24 00:51:35;;;;;;;12.70;8.33;;;;;;;;;;8298739;28;20026;-66
2023/01/24 00:55:40;;;;;;;11.45;8.35;;;;;;;;;;8299284;28;20346;-65
2023/01/24 00:59:41;;;;;;;11.68;7.80;;;;;;;;;;8312127;28;20030;-66
2023/01/24 01:03:41;;;;;;;11.48;8.25;;;;;;;;;;8294243;28;20049;-65
2023/01/24 01:07:41;;;;;;;13.32;8.45;;;;;;;;;;8297458;28;20090;-65
2023/01/24 01:11:42;;;;;;;12.57;7.75;;;;;;;;;;8294420;28;20026;-65
2023/01/24 01:15:42;;;;;;;11.47;7.50;;;;;;;;;;8294192;28;20137;-65
2023/01/24 01:19:42;;;;;;;10.82;7.43;;;;;;;;;;8293683;28;20775;-65
2023/01/24 01:23:43;;;;;;;11.17;7.57;;;;;;;;;;8300942;28;20018;-66
2023/01/24 01:27:43;;;;;;;10.88;7.35;;;;;;;;;;8297884;28;20260;-66
2023/01/24 01:31:43;;;;;;;11.02;7.25;;;;;;;;;;8297481;28;20032;-65
2023/01/24 01:35:43;;;;;;;10.73;6.95;;;;;;;;;;8303365;28;20040;-65
2023/01/24 01:39:43;;;;;;;11.32;7.20;;;;;;;;;;8306205;28;20031;-65
2023/01/24 01:48:15;;;;;;;11.90;7.28;;;;;;;;;;8294314;28;20127;-66
2023/01/24 01:52:15;;;;;;;14.52;8.65;;;;;;;;;;8301897;28;20041;-67
2023/01/24 01:56:24;;;;;;;13.20;8.27;;;;;;;;;;8301733;28;20489;-66
2023/01/24 02:00:25;;;;;;;13.10;8.43;;;;;;;;;;8303151;28;20045;-66
2023/01/24 02:04:28;;;;;;;14.88;8.70;;;;;;;;;;8301499;28;20091;-65
2023/01/24 02:08:29;;;;;;;14.27;7.77;;;;;;;;;;8300978;28;20456;-65
2023/01/24 02:12:36;;;;;;;11.45;7.32;;;;;;;;;;8303650;28;20094;-66
2023/01/24 02:16:36;;;;;;;13.93;8.27;;;;;;;;;;8301361;28;20045;-65
2023/01/24 02:25:20;;;;;;;14.32;9.45;;;;;;;;;;8286700;28;20098;-65
2023/01/24 02:29:20;;;;;;;12.23;8.27;;;;;;;;;;8295637;28;20025;-65
2023/01/24 02:33:21;;;;;;;10.25;7.65;;;;;;;;;;8302007;28;20045;-65
2023/01/24 02:37:22;;;;;;;13.50;8.15;;;;;;;;;;8300884;28;20029;-65
2023/01/24 02:41:25;;;;;;;12.13;8.30;;;;;;;;;;8298765;28;20087;-66
2023/01/24 02:45:26;;;;;;;14.13;8.40;;;;;;;;;;8300223;28;20496;-65
2023/01/24 02:49:27;;;;;;;13.05;8.32;;;;;;;;;;8289848;28;20131;-65
2023/01/24 02:53:30;;;;;;;15.48;9.20;;;;;;;;;;8297525;28;20025;-65
2023/01/24 03:01:49;;;;;;;16.02;9.02;;;;;;;;;;8301256;28;20049;-66
2023/01/24 03:05:58;;;;;;;15.50;9.20;;;;;;;;;;8300593;28;20542;-65
2023/01/24 03:09:58;;;;;;;14.07;8.90;;;;;;;;;;8298559;28;20029;-65
2023/01/24 03:35:34;;;;;;;14.15;8.90;;;;;;;;;;8295337;28;20140;-66
2023/01/24 03:43:53;;;;;;;16.35;8.52;;;;;;;;;;8298759;28;20090;-66
2023/01/24 03:47:54;;;;;;;15.18;9.23;;;;;;;;;;8297259;28;20069;-67
2023/01/24 03:56:13;;;;;;;14.93;9.15;;;;;;;;;;8299725;28;20079;-66
2023/01/24 04:00:14;;;;;;;15.07;8.65;;;;;;;;;;8297561;28;20037;-66
2023/01/24 04:04:14;;;;;;;16.20;8.82;;;;;;;;;;8297330;28;20024;-66
2023/01/24 04:08:15;;;;;;;13.53;8.37;;;;;;;;;;8307282;28;20099;-66
2023/01/24 04:12:16;;;;;;;12.73;7.75;;;;;;;;;;8299440;28;21293;-66
2023/01/24 04:16:16;;;;;;;14.02;8.73;;;;;;;;;;8313281;28;20037;-66
2023/01/24 04:20:16;;;;;;;13.48;8.52;;;;;;;;;;8290446;28;20107;-66
2023/01/24 04:24:17;;;;;;;14.60;8.68;;;;;;;;;;8297241;28;20595;-66
2023/01/24 04:28:17;;;;;;;14.80;8.93;;;;;;;;;;8298774;28;20064;-66
2023/01/24 04:32:17;;;;;;;14.10;8.73;;;;;;;;;;8296422;28;20520;-67
2023/01/24 04:36:17;;;;;;;15.30;9.48;;;;;;;;;;8297162;28;20496;-66
2023/01/24 04:40:18;;;;;;;12.85;8.63;;;;;;;;;;8299129;28;20110;-66
2023/01/24 04:44:18;;;;;;;13.27;8.85;;;;;;;;;;8298749;28;20874;-66
2023/01/24 04:48:18;;;;;;;13.87;8.87;;;;;;;;;;8285630;28;20038;-68
2023/01/24 04:52:18;;;;;;;14.75;8.40;;;;;;;;;;8297761;28;20268;-66
2023/01/24 04:56:19;;;;;;;17.00;9.05;;;;;;;;;;8299133;28;20029;-66
2023/01/24 05:00:19;;;;;;;13.85;9.35;;;;;;;;;;8303265;28;20477;-67
2023/01/24 05:04:19;;;;;;;13.85;9.10;;;;;;;;;;8305264;28;20307;-66
2023/01/24 05:08:20;;;;;;;14.25;9.23;;;;;;;;;;8304351;28;20033;-66
2023/01/24 05:12:20;;;;;;;15.88;9.38;;;;;;;;;;8305574;28;20080;-66
2023/01/24 05:16:20;;;;;;;14.05;9.57;;;;;;;;;;8303736;28;20045;-66
2023/01/24 05:20:20;;;;;;;14.45;8.40;;;;;;;;;;8304332;28;20044;-66
2023/01/24 05:24:21;;;;;;;14.63;9.75;;;;;;;;;;8305083;28;20037;-66
2023/01/24 05:28:21;;;;;;;14.13;8.70;;;;;;;;;;8304229;28;20458;-66
2023/01/24 05:32:21;;;;;;;14.87;8.90;;;;;;;;;;8302311;28;20284;-67
2023/01/24 05:36:23;;;;;;;14.82;9.15;;;;;;;;;;8303767;28;20316;-66
2023/01/24 05:40:23;;;;;;;13.55;8.90;;;;;;;;;;8300404;28;20017;-66
2023/01/24 05:44:23;;;;;;;13.80;8.43;;;;;;;;;;8298499;28;20021;-66
2023/01/24 05:48:23;;;;;;;13.88;8.90;;;;;;;;;;8301358;28;20777;-66
2023/01/24 05:52:23;;;;;;;12.70;8.30;;;;;;;;;;8301528;28;20022;-66
2023/01/24 05:56:24;;;;;;;13.45;9.00;;;;;;;;;;8301408;28;20034;-66
2023/01/24 06:00:24;;;;;;;13.95;9.43;;;;;;;;;;8298680;28;20029;-66
2023/01/24 06:04:24;;;;;;;15.18;8.98;;;;;;;;;;8301439;28;20441;-66
2023/01/24 06:08:24;;;;;;;14.48;9.38;;;;;;;;;;8300897;28;20116;-66
2023/01/24 06:12:24;;;;;;;13.30;7.90;;;;;;;;;;8301856;28;20021;-66
2023/01/24 06:16:25;;;;;;;13.52;8.50;;;;;;;;;;8298431;28;20048;-66
2023/01/24 06:20:25;;;;;;;14.20;8.82;;;;;;;;;;8301043;28;20036;-66
2023/01/24 06:24:26;;;;;;;12.25;7.63;;;;;;;;;;8300817;28;20026;-66
2023/01/24 06:28:26;;;;;;;16.55;8.93;;;;;;;;;;8299842;28;20017;-66
2023/01/24 06:32:44;;;;;;;13.05;8.63;;;;;;;;;;8302209;28;20033;-66
2023/01/24 06:36:53;;;;;;;14.52;8.25;;;;;;;;;;8300788;28;20025;-66
2023/01/24 06:40:58;;;;;;;13.13;8.30;;;;;;;;;;8301316;28;20021;-66
2023/01/24 06:44:58;;;;;;;13.40;8.73;;;;;;;;;;8303943;28;20061;-66
2023/01/24 06:48:59;;;;;;;14.27;8.75;;;;;;;;;;8298850;28;20068;-65
2023/01/24 06:52:59;;;;;;;16.30;9.18;;;;;;;;;;8298688;28;20033;-66
2023/01/24 06:56:59;;;;;;;13.57;9.10;;;;;;;;;;8300175;28;20025;-66
2023/01/24 07:00:59;;;;;;;13.95;9.35;;;;;;;;;;8299894;28;20401;-67
2023/01/24 07:04:59;;;;;;;14.35;9.00;;;;;;;;;;8300886;28;20440;-66
2023/01/24 07:09:00;;;;;;;16.27;8.82;;;;;;;;;;8297747;28;20033;-66
2023/01/24 07:13:00;;;;;;;13.38;8.45;;;;;;;;;;8297090;28;20272;-66
2023/01/24 07:17:00;;;;;;;14.90;9.00;;;;;;;;;;8286239;28;20060;-66
2023/01/24 07:21:04;;;;;;;14.27;8.65;;;;;;;;;;8285058;28;20025;-66
2023/01/24 07:25:05;;;;;;;14.07;9.47;;;;;;;;;;8291378;28;20025;-67
2023/01/24 07:29:05;;;;;;;14.02;8.75;;;;;;;;;;8290897;28;20302;-67
2023/01/24 07:33:05;;;;;;;13.57;9.10;;;;;;;;;;8279465;28;20037;-66
2023/01/24 07:37:06;;;;;;;17.55;10.02;;;;;;;;;;8288195;28;20792;-66
2023/01/24 07:41:10;;;;;;;13.07;8.90;;;;;;;;;;8282004;28;20361;-67
2023/01/24 07:45:10;;;;;;;14.70;9.25;;;;;;;;;;8277492;28;20026;-66
2023/01/24 07:49:10;;;;;;;14.55;8.45;;;;;;;;;;8292459;28;20097;-66
2023/01/24 07:53:10;;;;;;;12.88;8.10;;;;;;;;;;8294326;28;20129;-67
2023/01/24 07:57:11;;;;;;;13.68;8.38;;;;;;;;;;8295093;28;20026;-67
2023/01/24 08:01:20;;;;;;;14.77;8.93;;;;;;;;;;8287128;28;20123;-66
2023/01/24 08:05:21;;;;;;;12.68;8.27;;;;;;;;;;8294136;28;20033;-66
2023/01/24 08:09:21;;;;;;;12.70;7.85;;;;;;;;;;8295671;28;20033;-66
2023/01/24 08:13:21;;;;;;;11.23;7.75;;;;;;;;;;8296101;28;20102;-66
2023/01/24 08:17:22;;;;;;;14.55;8.40;;;;;;;;;;8293622;28;20048;-67
2023/01/24 08:21:22;;;;;;;14.35;8.52;;;;;;;;;;8295053;28;20025;-68
2023/01/24 08:25:22;;;;;;;15.55;9.73;;;;;;;;;;8295960;28;20025;-66
2023/01/24 08:29:23;;;;;;;13.30;7.68;;;;;;;;;;8290163;28;20052;-67
2023/01/24 08:33:23;;;;;;;12.60;7.85;;;;;;;;;;8293636;28;20580;-66
2023/01/24 08:37:23;;;;;;;17.13;9.00;;;;;;;;;;8295546;28;20287;-66
2023/01/24 08:41:23;;;;;;;13.05;8.43;;;;;;;;;;8293254;28;20276;-66
2023/01/24 08:45:23;;;;;;;14.48;9.15;;;;;;;;;;8293478;28;20038;-66
2023/01/24 08:49:24;;;;;;;13.00;8.35;;;;;;;;;;8293913;28;20029;-66
2023/01/24 08:53:24;;;;;;;12.63;7.95;;;;;;;;;;8292859;28;20045;-66
2023/01/24 08:57:24;;;;;;;14.77;8.48;;;;;;;;;;8292796;28;20060;-66
2023/01/24 09:01:26;;;;;;;12.50;8.05;;;;;;;;;;8290598;28;20116;-66
2023/01/24 09:05:27;;;;;;;11.38;7.75;;;;;;;;;;8294164;28;20033;-66
2023/01/24 09:09:27;;;;;;;12.05;8.15;;;;;;;;;;8296321;28;20029;-66
2023/01/24 09:13:28;;;;;;;12.45;8.45;;;;;;;;;;8292555;28;20127;-66
2023/01/24 09:17:28;;;;;;;12.27;7.65;;;;;;;;;;8292569;28;20038;-66
2023/01/24 09:21:28;;;;;;;14.32;7.68;;;;;;;;;;8294610;28;20120;-66
2023/01/24 09:25:30;;;;;;;12.30;7.93;;;;;;;;;;8291803;28;20810;-66
2023/01/24 09:29:30;;;;;;;12.13;8.05;;;;;;;;;;8295212;28;20029;-67
2023/01/24 09:33:30;;;;;;;10.35;6.93;;;;;;;;;;8292945;28;20046;-66
2023/01/24 09:37:31;;;;;;;12.18;7.30;;;;;;;;;;8294438;28;20026;-66
2023/01/24 09:41:48;;;;;;;11.10;7.40;;;;;;;;;;8296550;28;20049;-66
2023/01/24 09:45:48;;;;;;;10.23;6.88;;;;;;;;;;8299214;28;20106;-66
2023/01/24 09:49:55;;;;;;;12.50;7.68;;;;;;;;;;8301591;28;20624;-66
2023/01/24 09:53:57;;;;;;;10.60;6.85;;;;;;;;;;8299759;28;20025;-66
2023/01/24 09:58:01;;;;;;;12.18;7.55;;;;;;;;;;8297403;28;20460;-66
2023/01/24 10:02:02;;;;;;;10.52;6.70;;;;;;;;;;8294076;28;20041;-67
2023/01/24 10:06:23;;;;;;;10.82;6.90;;;;;;;;;;8299463;28;20033;-66
2023/01/24 10:10:39;;;;;;;11.00;7.00;;;;;;;;;;8298925;28;20124;-67
2023/01/24 10:14:58;;;;;;;10.18;6.88;;;;;;;;;;8298482;28;20612;-67
2023/01/24 10:18:58;;;;;;;11.07;6.45;;;;;;;;;;8297693;28;20041;-67
2023/01/24 10:23:07;;;;;;;9.73;6.82;;;;;;;;;;8299381;28;20120;-67
2023/01/24 10:27:23;;;;;;;8.73;6.38;;;;;;;;;;8300057;28;20025;-66
2023/01/24 10:31:34;;;;;;;9.50;6.57;;;;;;;;;;8287726;28;20047;-67
2023/01/24 10:35:40;;;;;;;12.48;6.97;;;;;;;;;;8298096;28;20037;-66
2023/01/24 10:39:40;;;;;;;8.80;5.72;;;;;;;;;;8298045;28;20402;-67
2023/01/24 10:43:41;;;;;;;9.27;6.32;;;;;;;;;;8296596;28;20032;-67
2023/01/24 10:47:47;;;;;;;9.77;5.90;;;;;;;;;;8296987;28;20124;-73
2023/01/24 10:52:07;;;;;;;8.40;5.43;;;;;;;;;;8299106;28;20155;-67
2023/01/24 10:56:08;;;;;;;8.20;6.03;;;;;;;;;;8295287;28;20025;-66
2023/01/24 11:00:22;;;;;;;9.27;6.38;;;;;;;;;;8297039;28;20067;-67
2023/01/24 11:04:27;;;;;;;7.13;5.55;;;;;;;;;;8296255;28;20013;-67
2023/01/24 11:08:35;;;;;;;8.43;5.57;;;;;;;;;;8297868;28;20036;-67
2023/01/24 11:12:35;;;;;;;9.95;6.15;;;;;;;;;;8294983;28;20508;-67
2023/01/24 11:16:43;;;;;;;8.70;5.97;;;;;;;;;;8296036;28;20030;-67
2023/01/24 11:20:44;;;;;;;9.68;5.90;;;;;;;;;;8295489;28;20025;-67
2023/01/24 11:24:45;;;;;;;8.90;5.95;;;;;;;;;;8295421;28;20644;-67
2023/01/24 11:28:54;;;;;;;8.90;5.63;;;;;;;;;;8297871;28;20430;-67
2023/01/24 11:33:34;;;;;;;8.38;5.78;;;;;;;;;;8296911;28;20160;-67
2023/01/24 11:37:34;;;;;;;7.13;5.30;;;;;;;;;;8216548;28;20070;-67
2023/01/24 11:41:45;;;;;;;7.38;5.38;;;;;;;;;;8254745;28;20033;-67
2023/01/24 11:45:57;;;;;;;8.05;5.70;;;;;;;;;;8294780;28;20037;-67
2023/01/24 11:50:09;;;;;;;7.97;5.80;;;;;;;;;;8297586;28;20036;-67
2023/01/24 11:54:10;;;;;;;7.03;5.47;;;;;;;;;;8294000;28;20079;-67
2023/01/24 11:58:16;;;;;;;7.97;5.63;;;;;;;;;;8295385;28;20042;-66
2023/01/24 12:02:36;;;;;;;9.07;5.45;;;;;;;;;;8291003;28;20210;-67
2023/01/24 12:06:47;;;;;;;7.57;5.65;;;;;;;;;;8293881;28;20472;-66
2023/01/24 12:11:00;;;;;;;8.55;5.90;;;;;;;;;;8292120;28;20526;-67
2023/01/24 12:15:19;;;;;;;8.35;5.38;;;;;;;;;;8294539;28;20021;-67
2023/01/24 12:19:38;;;;;;;7.55;5.30;;;;;;;;;;8294519;28;20119;-66
2023/01/24 12:23:47;;;;;;;8.60;5.38;;;;;;;;;;8293373;28;20925;-67
2023/01/24 12:27:48;;;;;;;8.38;5.72;;;;;;;;;;8294668;28;20563;-67
2023/01/24 12:31:54;;;;;;;8.02;5.50;;;;;;;;;;8292339;28;20781;-66
2023/01/24 12:35:57;;;;;;;9.23;5.60;;;;;;;;;;8293047;28;20017;-67
2023/01/24 12:40:05;;;;;;;7.80;5.53;;;;;;;;;;8293799;28;20055;-67
2023/01/24 12:44:27;;;;;;;6.65;5.00;;;;;;;;;;8293679;28;20022;-67
2023/01/24 12:48:27;;;;;;;7.35;5.00;;;;;;;;;;8290033;28;20045;-67
2023/01/24 12:52:32;;;;;;;7.95;5.60;;;;;;;;;;8292041;28;20846;-67
2023/01/24 12:56:51;;;;;;;8.57;5.68;;;;;;;;;;8284663;28;20426;-67
2023/01/24 13:00:51;;;;;;;8.50;5.22;;;;;;;;;;8293074;28;20547;-67
2023/01/24 13:05:10;;;;;;;6.57;4.80;;;;;;;;;;8292072;28;20025;-66
2023/01/24 13:09:34;;;;;;;6.85;5.18;;;;;;;;;;8292876;28;20060;-67
2023/01/24 13:13:39;;;;;;;9.30;5.63;;;;;;;;;;8283371;28;20738;-66
2023/01/24 13:17:55;;;;;;;7.10;5.55;;;;;;;;;;8291613;28;20042;-67
2023/01/24 13:22:10;;;;;;;8.60;5.82;;;;;;;;;;8297165;28;20024;-66
2023/01/24 13:26:30;;;;;;;6.78;4.95;;;;;;;;;;8296690;28;20026;-67
2023/01/24 13:30:33;;;;;;;6.97;5.10;;;;;;;;;;8298487;28;20620;-67
2023/01/24 13:34:35;;;;;;;7.85;5.93;;;;;;;;;;8295803;28;20460;-65
2023/01/24 13:38:42;;;;;;;7.40;5.38;;;;;;;;;;8291201;28;20022;-66
2023/01/24 13:42:43;;;;;;;7.72;5.55;;;;;;;;;;8290010;28;20136;-65
2023/01/24 13:46:43;;;;;;;7.60;5.55;;;;;;;;;;8290506;28;20044;-65
2023/01/24 13:50:43;;;;;;;8.88;5.55;;;;;;;;;;8294702;28;20036;-65
2023/01/24 13:54:43;;;;;;;6.63;5.32;;;;;;;;;;8291015;28;20021;-67
2023/01/24 13:58:46;;;;;;;7.03;5.03;;;;;;;;;;8292010;28;20025;-65
2023/01/24 14:02:47;;;;;;;9.57;4.97;;;;;;;;;;8290706;28;20561;-66
2023/01/24 14:06:50;;;;;;;7.80;5.05;;;;;;;;;;8292286;28;20335;-65
2023/01/24 14:10:54;;;;;;;7.82;5.63;;;;;;;;;;8290356;28;20022;-65
2023/01/24 14:15:24;;;;;;;6.05;4.65;;;;;;;;;;8292960;28;20036;-65
2023/01/24 14:19:29;;;;;;;8.23;5.13;;;;;;;;;;8281907;28;20421;-67
2023/01/24 14:23:30;;;;;;;7.43;4.78;;;;;;;;;;8292315;28;20517;-66
2023/01/24 14:27:40;;;;;;;6.85;5.05;;;;;;;;;;8293263;28;20045;-65
2023/01/24 14:31:44;;;;;;;8.43;5.53;;;;;;;;;;8290811;28;20436;-66
2023/01/24 14:35:50;;;;;;;7.25;5.28;;;;;;;;;;8293805;28;20035;-66
2023/01/24 14:39:50;;;;;;;7.63;5.13;;;;;;;;;;8292355;28;20033;-65
2023/01/24 14:43:50;;;;;;;7.22;5.28;;;;;;;;;;8307221;28;20122;-65
2023/01/24 14:47:51;;;;;;;7.38;5.20;;;;;;;;;;8314991;28;20037;-65
2023/01/24 14:51:52;;;;;;;7.43;5.60;;;;;;;;;;8326476;28;20150;-66
2023/01/24 14:55:53;;;;;;;9.00;5.83;;;;;;;;;;8324394;28;20299;-65
2023/01/24 15:00:00;;;;;;;8.35;5.60;;;;;;;;;;8324866;28;20259;-66
2023/01/24 15:04:00;;;;;;;7.40;5.90;;;;;;;;;;8320046;28;20094;-65
2023/01/24 15:08:01;;;;;;;8.70;5.67;;;;;;;;;;8324795;28;20108;-66
2023/01/24 15:12:24;;;;;;;7.28;5.63;;;;;;;;;;8330527;28;20275;-65
2023/01/24 15:16:30;;;;;;;7.35;5.75;;;;;;;;;;8324166;28;20500;-66
2023/01/24 15:20:30;;;;;;;9.32;6.53;;;;;;;;;;8330005;28;20029;-65
2023/01/24 15:24:31;;;;;;;8.70;5.78;;;;;;;;;;8329999;28;20025;-65
2023/01/24 15:28:31;;;;;;;9.77;6.55;;;;;;;;;;8343945;28;20031;-65
2023/01/24 15:32:34;;;;;;;9.03;6.47;;;;;;;;;;8328322;28;20048;-65
2023/01/24 15:36:34;;;;;;;8.82;6.18;;;;;;;;;;8329499;28;20291;-65
2023/01/24 15:40:36;;;;;;;8.13;5.88;;;;;;;;;;8326496;28;20401;-65
2023/01/24 15:44:46;;;;;;;9.32;6.20;;;;;;;;;;8329788;28;20484;-66
2023/01/24 15:48:59;;;;;;;8.07;6.25;;;;;;;;;;8325544;28;20126;-66
2023/01/24 15:53:19;;;;;;;8.63;6.00;;;;;;;;;;8328186;28;20025;-65
2023/01/24 15:57:24;;;;;;;8.35;5.95;;;;;;;;;;8327543;28;20099;-65
2023/01/24 16:01:28;;;;;;;8.30;6.18;;;;;;;;;;8325917;28;20029;-66
2023/01/24 16:05:29;;;;;;;9.27;6.72;;;;;;;;;;8329145;28;20083;-65
2023/01/24 16:09:29;;;;;;;10.15;6.68;;;;;;;;;;8326849;28;20047;-65
2023/01/24 16:13:33;;;;;;;10.02;6.43;;;;;;;;;;8327970;28;20032;-65
2023/01/24 16:17:33;;;;;;;;;;;;;;;;;;8322902;28;20033;-63
2023/01/24 16:21:33;;;;;;;9.55;5.28;;;;;;;;;;8312511;28;20492;-65
2023/01/24 16:25:35;;;;;;;8.93;6.20;;;;;;;;;;8319326;28;20445;-63
2023/01/24 16:29:35;;;;;;;9.10;6.25;;;;;;;;;;8319059;28;20062;-64
2023/01/24 16:33:35;;;;;;;9.38;6.15;;;;;;;;;;8317676;28;20161;-63
2023/01/24 16:37:36;;;;;;;9.18;6.28;;;;;;;;;;8318637;28;20031;-63
2023/01/24 16:41:36;;;;;;;8.07;5.63;;;;;;;;;;8316708;28;20025;-63
2023/01/24 16:45:36;;;;;;;8.27;5.80;;;;;;;;;;8317556;28;20040;-63
2023/01/24 16:49:36;;;;;;;8.90;5.82;;;;;;;;;;8318651;28;20053;-63
2023/01/24 16:53:36;;;;;;;9.80;6.50;;;;;;;;;;8319998;28;20447;-63
2023/01/24 16:57:37;;;;;;;7.88;5.60;;;;;;;;;;8324783;28;20628;-63
2023/01/24 17:01:37;;;;;;;8.55;5.75;;;;;;;;;;8324517;28;20080;-64
2023/01/24 17:05:38;;;;;;;9.05;5.72;;;;;;;;;;8317406;28;20028;-63
2023/01/24 17:09:38;;;;;;;8.52;6.20;;;;;;;;;;8322241;28;20075;-63
2023/01/24 17:13:38;;;;;;;9.15;6.18;;;;;;;;;;8322587;28;20021;-64
2023/01/24 17:17:39;;;;;;;8.77;6.07;;;;;;;;;;8323013;28;20284;-63
2023/01/24 17:21:39;;;;;;;9.73;6.70;;;;;;;;;;8315778;28;20229;-63
2023/01/24 17:25:39;;;;;;;8.55;5.85;;;;;;;;;;8324933;28;20268;-64
2023/01/24 17:29:39;;;;;;;9.00;6.38;;;;;;;;;;8325708;28;20029;-62
2023/01/24 17:33:39;;;;;;;12.77;6.72;;;;;;;;;;8322432;28;20575;-63
2023/01/24 17:37:40;;;;;;;8.52;5.90;;;;;;;;;;8321822;28;20024;-63
2023/01/24 17:41:40;;;;;;;7.20;5.68;;;;;;;;;;8324234;28;20025;-63
2023/01/24 17:45:48;;;;;;;11.75;6.85;;;;;;;;;;8321304;28;20033;-63
2023/01/24 17:49:48;;;;;;;8.98;6.22;;;;;;;;;;8323334;28;20025;-63
2023/01/24 17:53:49;;;;;;;9.95;7.10;;;;;;;;;;8324689;28;20850;-63
2023/01/24 17:57:49;;;;;;;9.50;6.60;;;;;;;;;;8323407;28;20109;-63
2023/01/24 18:01:49;;;;;;;8.88;6.43;;;;;;;;;;8324859;28;20029;-63
2023/01/24 18:05:50;;;;;;;10.27;7.05;;;;;;;;;;8322356;28;20115;-63
2023/01/24 18:09:50;;;;;;;10.70;6.90;;;;;;;;;;8322725;28;20448;-63
2023/01/24 18:13:50;;;;;;;8.70;6.40;;;;;;;;;;8317952;28;20053;-63
2023/01/24 18:17:51;;;;;;;11.98;6.82;;;;;;;;;;8319099;28;20045;-63
2023/01/24 18:21:51;;;;;;;10.13;6.50;;;;;;;;;;8322246;28;20469;-63
2023/01/24 18:25:51;;;;;;;9.25;6.15;;;;;;;;;;8321970;28;20115;-63
2023/01/24 18:29:52;;;;;;;9.95;6.55;;;;;;;;;;8321050;28;20037;-63
2023/01/24 18:33:53;;;;;;;8.77;6.28;;;;;;;;;;8321276;28;20154;-63
2023/01/24 18:37:54;;;;;;;10.52;7.75;;;;;;;;;;8321683;28;20060;-63
2023/01/24 18:41:54;;;;;;;10.82;7.00;;;;;;;;;;8320484;28;20021;-63
2023/01/24 18:45:54;;;;;;;12.40;7.70;;;;;;;;;;8320330;28;20033;-63
2023/01/24 18:49:54;;;;;;;11.10;7.05;;;;;;;;;;8320883;28;20833;-62
2023/01/24 18:53:55;;;;;;;11.13;8.30;;;;;;;;;;8324019;28;20060;-64
2023/01/24 18:57:55;;;;;;;12.73;8.25;;;;;;;;;;8322152;28;20028;-63
2023/01/24 19:01:56;;;;;;;11.45;7.82;;;;;;;;;;8314870;28;20189;-63
2023/01/24 19:05:56;;;;;;;13.00;8.10;;;;;;;;;;8319054;28;20447;-63
2023/01/24 19:09:56;;;;;;;13.27;8.07;;;;;;;;;;8321959;28;20021;-63
2023/01/24 19:13:56;;;;;;;11.63;8.25;;;;;;;;;;8320408;28;20029;-63
2023/01/24 19:17:57;;;;;;;11.95;8.05;;;;;;;;;;8317137;28;20580;-63
2023/01/24 19:21:57;;;;;;;12.05;8.13;;;;;;;;;;8318831;28;20035;-63
2023/01/24 19:26:00;;;;;;;9.23;6.37;;;;;;;;;;8309416;28;20020;-63
2023/01/24 19:30:01;;;;;;;9.00;6.50;;;;;;;;;;8318476;28;20282;-63
2023/01/24 19:34:04;;;;;;;13.10;7.88;;;;;;;;;;8319295;28;20596;-63
2023/01/24 19:38:04;;;;;;;11.80;7.80;;;;;;;;;;8319125;28;20516;-63
2023/01/24 19:42:04;;;;;;;9.00;6.32;;;;;;;;;;8314439;28;20044;-63
2023/01/24 19:46:04;;;;;;;8.88;6.70;;;;;;;;;;8317955;28;20036;-63
2023/01/24 19:50:05;;;;;;;8.07;6.25;;;;;;;;;;8313877;28;20021;-63
2023/01/24 19:54:05;;;;;;;9.02;6.60;;;;;;;;;;8317388;28;20437;-63
2023/01/24 19:58:06;;;;;;;8.13;5.93;;;;;;;;;;8316158;28;20460;-63
2023/01/24 20:02:08;;;;;;;8.65;6.32;;;;;;;;;;8317809;28;20217;-63
2023/01/24 20:06:09;;;;;;;7.35;5.70;;;;;;;;;;8318477;28;20020;-63
2023/01/24 20:10:10;;;;;;;9.48;5.57;;;;;;;;;;8313589;28;20267;-64
2023/01/24 20:14:10;;;;;;;8.38;6.13;;;;;;;;;;8313685;28;20631;-63
2023/01/24 20:18:10;;;;;;;8.02;5.45;;;;;;;;;;8315433;28;20118;-63
2023/01/24 20:22:10;;;;;;;9.52;5.93;;;;;;;;;;8312742;28;21081;-63
2023/01/24 20:26:11;;;;;;;8.32;5.93;;;;;;;;;;8316270;28;20032;-64
2023/01/24 20:30:11;;;;;;;7.88;6.20;;;;;;;;;;8314351;28;20021;-63
2023/01/24 20:34:11;;;;;;;8.60;6.00;;;;;;;;;;8313997;28;20028;-63
2023/01/24 20:38:12;;;;;;;8.60;6.07;;;;;;;;;;8314715;28;20032;-63
2023/01/24 20:42:13;;;;;;;11.73;6.28;;;;;;;;;;8317184;28;20144;-63
2023/01/24 20:46:18;;;;;;;10.35;7.05;;;;;;;;;;8315860;28;20068;-63
2023/01/24 20:50:19;;;;;;;8.88;6.25;;;;;;;;;;8316104;28;20029;-63
2023/01/24 20:54:20;;;;;;;10.30;6.70;;;;;;;;;;8315210;28;20123;-63
2023/01/24 20:58:21;;;;;;;8.93;6.85;;;;;;;;;;8303274;28;20024;-63
2023/01/24 21:02:21;;;;;;;11.15;7.40;;;;;;;;;;8314644;28;20033;-63
2023/01/24 21:06:23;;;;;;;11.23;7.22;;;;;;;;;;8305721;28;20064;-62
2023/01/24 21:10:23;;;;;;;8.77;6.60;;;;;;;;;;8310555;28;20470;-63
2023/01/24 21:14:23;;;;;;;11.13;8.25;;;;;;;;;;8320334;28;20040;-63
2023/01/24 21:18:24;;;;;;;9.90;6.90;;;;;;;;;;8320905;28;21860;-63
2023/01/24 21:22:24;;;;;;;8.93;6.88;;;;;;;;;;8322958;28;20111;-63
2023/01/24 21:26:24;;;;;;;9.30;7.07;;;;;;;;;;8323637;28;20052;-63
2023/01/24 21:30:25;;;;;;;10.13;6.93;;;;;;;;;;8325110;28;20140;-63
2023/01/24 21:34:25;;;;;;;10.35;7.15;;;;;;;;;;8325403;28;20274;-63
2023/01/24 21:38:26;;;;;;;9.93;6.88;;;;;;;;;;8325927;28;20029;-63
2023/01/24 21:42:26;;;;;;;12.02;7.18;;;;;;;;;;8334018;28;20033;-63
2023/01/24 21:46:27;;;;;;;11.45;7.05;;;;;;;;;;8333036;28;20468;-63
2023/01/24 21:50:27;;;;;;;9.38;6.90;;;;;;;;;;8331344;28;20026;-63
2023/01/24 21:54:30;;;;;;;9.50;7.00;;;;;;;;;;8330513;28;20024;-63
2023/01/24 21:58:30;;;;;;;11.02;7.07;;;;;;;;;;8332734;28;20546;-63
2023/01/24 22:02:31;;;;;;;11.55;7.50;;;;;;;;;;8329417;28;20033;-64
2023/01/24 22:06:31;;;;;;;9.55;7.28;;;;;;;;;;8330829;28;20028;-64
2023/01/24 22:10:31;;;;;;;9.25;6.43;;;;;;;;;;8331837;28;20150;-63
2023/01/24 22:14:32;;;;;;;10.20;6.93;;;;;;;;;;8330175;28;20021;-63
2023/01/24 22:18:32;;;;;;;9.98;6.57;;;;;;;;;;8331524;28;20292;-63
2023/01/24 22:22:56;;;;;;;9.07;6.55;;;;;;;;;;8332759;28;20029;-63
2023/01/24 22:27:03;;;;;;;13.23;7.38;;;;;;;;;;8319957;28;20064;-63
2023/01/24 22:31:04;;;;;;;8.35;6.72;;;;;;;;;;8332025;28;20045;-63
2023/01/24 22:35:04;;;;;;;9.38;7.30;;;;;;;;;;8332367;28;20049;-63
2023/01/24 22:39:04;;;;;;;10.52;7.07;;;;;;;;;;8332585;28;20020;-63
2023/01/24 22:43:04;;;;;;;9.95;7.18;;;;;;;;;;8333736;28;20025;-63
2023/01/24 22:47:05;;;;;;;11.48;7.20;;;;;;;;;;8331435;28;20036;-63
2023/01/24 22:51:05;;;;;;;10.48;7.32;;;;;;;;;;8332869;28;20057;-64
2023/01/24 22:55:06;;;;;;;8.35;6.60;;;;;;;;;;8332820;28;20103;-63
2023/01/24 22:59:06;;;;;;;12.02;7.05;;;;;;;;;;8331636;28;20021;-63
2023/01/24 23:03:07;;;;;;;10.73;6.88;;;;;;;;;;8332531;28;20033;-63
2023/01/24 23:07:07;;;;;;;9.30;6.85;;;;;;;;;;8329613;28;20075;-63
2023/01/24 23:11:11;;;;;;;9.95;6.75;;;;;;;;;;8332323;28;20037;-63
2023/01/24 23:23:58;;;;;;;8.75;6.75;;;;;;;;;;8331391;28;20071;-62
2023/01/24 23:27:58;;;;;;;9.98;7.07;;;;;;;;;;8331778;28;20123;-63
2023/01/24 23:32:00;;;;;;;9.68;7.05;;;;;;;;;;8330787;28;20114;-62
2023/01/24 23:36:00;;;;;;;10.00;7.20;;;;;;;;;;8328680;28;20056;-63
2023/01/24 23:40:01;;;;;;;9.73;7.03;;;;;;;;;;8330594;28;20029;-63
2023/01/24 23:44:02;;;;;;;10.63;7.32;;;;;;;;;;8330543;28;20103;-62
2023/01/24 23:48:02;;;;;;;11.10;7.40;;;;;;;;;;8331402;28;20544;-63
2023/01/24 23:52:03;;;;;;;9.48;7.00;;;;;;;;;;8331789;28;20045;-62
2023/01/24 23:56:03;;;;;;;11.30;7.95;;;;;;;;;;8330697;28;20066;-63
